sensor_id;sensor_type;location;lat;lon;timestamp;pressure;altitude;pressure_sealevel;temperature;humidity
9415;BME280;4746;35.664;139.738;2023-02-10T00:01:41;101368.16;;;6.90;47.51
9415;BME280;4746;35.664;139.738;2023-02-10T00:04:12;101346.78;;;6.87;48.14
9415;BME280;4746;35.664;139.738;2023-02-10T00:06:41;101360.38;;;6.88;48.57
9415;BME280;4746;35.664;139.738;2023-02-10T00:09:13;101366.38;;;6.88;48.86
9415;BME280;4746;35.664;139.738;2023-02-10T00:11:41;101369.72;;;6.87;48.64
9415;BME280;4746;35.664;139.738;2023-02-10T00:14:24;101362.03;;;6.86;49.35
9415;BME280;4746;35.664;139.738;2023-02-10T00:16:54;101368.91;;;6.88;49.66
9415;BME280;4746;35.664;139.738;2023-02-10T00:19:25;101355.28;;;6.88;49.78
9415;BME280;4746;35.664;139.738;2023-02-10T00:21:53;101371.56;;;6.91;49.84
9415;BME280;4746;35.664;139.738;2023-02-10T00:24:22;101373.06;;;6.86;49.54
9415;BME280;4746;35.664;139.738;2023-02-10T00:26:51;101380.75;;;6.88;49.91
9415;BME280;4746;35.664;139.738;2023-02-10T00:29:18;101388.00;;;6.77;49.95
9415;BME280;4746;35.664;139.738;2023-02-10T00:31:49;101397.69;;;6.65;49.88
9415;BME280;4746;35.664;139.738;2023-02-10T00:34:17;101416.16;;;6.61;50.79
9415;BME280;4746;35.664;139.738;2023-02-10T00:36:48;101431.91;;;6.53;50.68
9415;BME280;4746;35.664;139.738;2023-02-10T00:39:16;101436.00;;;6.49;51.42
9415;BME280;4746;35.664;139.738;2023-02-10T00:41:44;101462.19;;;6.47;51.05
9415;BME280;4746;35.664;139.738;2023-02-10T00:44:11;101432.88;;;6.36;51.65
9415;BME280;4746;35.664;139.738;2023-02-10T00:46:39;101431.03;;;6.32;51.71
9415;BME280;4746;35.664;139.738;2023-02-10T00:49:11;101415.53;;;6.27;51.74
9415;BME280;4746;35.664;139.738;2023-02-10T00:51:39;101432.25;;;6.21;52.33
9415;BME280;4746;35.664;139.738;2023-02-10T00:54:06;101389.53;;;6.14;52.07
9415;BME280;4746;35.664;139.738;2023-02-10T00:56:34;101381.69;;;6.10;52.41
9415;BME280;4746;35.664;139.738;2023-02-10T00:59:01;101378.13;;;6.06;52.04
9415;BME280;4746;35.664;139.738;2023-02-10T01:01:29;101385.38;;;5.97;52.01
9415;BME280;4746;35.664;139.738;2023-02-10T01:03:57;101377.34;;;5.88;52.74
9415;BME280;4746;35.664;139.738;2023-02-10T01:06:25;101349.94;;;5.81;53.04
9415;BME280;4746;35.664;139.738;2023-02-10T01:08:52;101365.09;;;5.80;53.47
9415;BME280;4746;35.664;139.738;2023-02-10T01:11:20;101360.09;;;5.81;52.94
9415;BME280;4746;35.664;139.738;2023-02-10T01:13:50;101356.81;;;5.84;53.45
9415;BME280;4746;35.664;139.738;2023-02-10T01:16:17;101374.88;;;5.90;53.67
9415;BME280;4746;35.664;139.738;2023-02-10T01:18:46;101360.53;;;5.92;53.80
9415;BME280;4746;35.664;139.738;2023-02-10T01:21:18;101320.66;;;5.91;53.81
9415;BME280;4746;35.664;139.738;2023-02-10T01:23:47;101302.75;;;5.88;53.73
9415;BME280;4746;35.664;139.738;2023-02-10T01:26:16;101280.81;;;5.90;53.93
9415;BME280;4746;35.664;139.738;2023-02-10T01:28:44;101309.84;;;5.95;54.43
9415;BME280;4746;35.664;139.738;2023-02-10T01:31:19;101355.72;;;5.98;54.24
9415;BME280;4746;35.664;139.738;2023-02-10T01:33:51;101340.34;;;5.95;54.41
9415;BME280;4746;35.664;139.738;2023-02-10T01:36:22;101369.25;;;5.97;54.21
9415;BME280;4746;35.664;139.738;2023-02-10T01:38:51;101387.94;;;5.97;53.77
9415;BME280;4746;35.664;139.738;2023-02-10T01:41:22;101368.44;;;5.98;54.25
9415;BME280;4746;35.664;139.738;2023-02-10T01:46:35;101359.91;;;5.96;54.45
9415;BME280;4746;35.664;139.738;2023-02-10T01:49:10;101373.19;;;5.90;54.59
9415;BME280;4746;35.664;139.738;2023-02-10T01:52:05;101358.16;;;5.95;54.59
9415;BME280;4746;35.664;139.738;2023-02-10T01:54:45;101324.56;;;6.02;54.58
9415;BME280;4746;35.664;139.738;2023-02-10T01:57:14;101311.34;;;6.10;54.68
9415;BME280;4746;35.664;139.738;2023-02-10T01:59:43;101332.88;;;6.18;54.43
9415;BME280;4746;35.664;139.738;2023-02-10T02:02:13;101328.78;;;6.21;54.76
9415;BME280;4746;35.664;139.738;2023-02-10T02:05:14;101324.63;;;6.23;54.43
9415;BME280;4746;35.664;139.738;2023-02-10T02:07:44;101328.84;;;6.23;54.73
9415;BME280;4746;35.664;139.738;2023-02-10T02:10:12;101317.00;;;6.23;54.72
9415;BME280;4746;35.664;139.738;2023-02-10T02:12:45;101295.16;;;6.28;54.58
9415;BME280;4746;35.664;139.738;2023-02-10T02:15:41;101275.09;;;6.36;54.33
9415;BME280;4746;35.664;139.738;2023-02-10T02:31:44;101267.41;;;6.34;54.74
9415;BME280;4746;35.664;139.738;2023-02-10T02:39:54;101248.66;;;6.32;55.23
9415;BME280;4746;35.664;139.738;2023-02-10T02:42:31;101227.50;;;6.33;55.02
9415;BME280;4746;35.664;139.738;2023-02-10T02:53:56;101235.13;;;6.33;54.98
9415;BME280;4746;35.664;139.738;2023-02-10T02:56:43;101217.47;;;6.36;55.12
9415;BME280;4746;35.664;139.738;2023-02-10T03:02:09;101195.41;;;6.37;55.04
9415;BME280;4746;35.664;139.738;2023-02-10T03:04:40;101158.19;;;6.39;55.48
9415;BME280;4746;35.664;139.738;2023-02-10T03:07:08;101148.25;;;6.45;55.59
9415;BME280;4746;35.664;139.738;2023-02-10T03:09:36;101130.56;;;6.49;55.21
9415;BME280;4746;35.664;139.738;2023-02-10T03:12:04;101118.91;;;6.54;55.40
9415;BME280;4746;35.664;139.738;2023-02-10T03:14:32;101105.69;;;6.64;55.23
9415;BME280;4746;35.664;139.738;2023-02-10T03:17:00;101095.84;;;6.73;55.23
9415;BME280;4746;35.664;139.738;2023-02-10T03:19:27;101086.63;;;6.77;54.49
9415;BME280;4746;35.664;139.738;2023-02-10T03:21:55;101079.75;;;6.74;55.28
9415;BME280;4746;35.664;139.738;2023-02-10T03:24:22;101060.31;;;6.76;55.27
9415;BME280;4746;35.664;139.738;2023-02-10T03:26:50;101062.88;;;6.76;55.16
9415;BME280;4746;35.664;139.738;2023-02-10T03:29:17;101059.44;;;6.76;55.30
9415;BME280;4746;35.664;139.738;2023-02-10T03:31:45;101065.50;;;6.79;55.62
9415;BME280;4746;35.664;139.738;2023-02-10T03:34:13;101060.53;;;6.82;55.65
9415;BME280;4746;35.664;139.738;2023-02-10T03:36:40;101052.28;;;6.89;55.24
9415;BME280;4746;35.664;139.738;2023-02-10T03:39:08;101042.31;;;6.95;55.26
9415;BME280;4746;35.664;139.738;2023-02-10T03:41:35;101052.38;;;6.92;55.40
9415;BME280;4746;35.664;139.738;2023-02-10T03:44:03;101070.81;;;6.85;55.17
9415;BME280;4746;35.664;139.738;2023-02-10T03:46:33;101061.44;;;6.84;55.71
9415;BME280;4746;35.664;139.738;2023-02-10T03:49:05;101047.00;;;6.83;55.91
9415;BME280;4746;35.664;139.738;2023-02-10T03:51:33;101048.69;;;6.84;56.02
9415;BME280;4746;35.664;139.738;2023-02-10T03:54:00;101049.59;;;6.85;55.86
9415;BME280;4746;35.664;139.738;2023-02-10T03:56:28;101035.28;;;6.88;55.86
9415;BME280;4746;35.664;139.738;2023-02-10T03:58:55;101025.94;;;6.88;55.51
9415;BME280;4746;35.664;139.738;2023-02-10T04:01:23;100995.38;;;6.88;55.34
9415;BME280;4746;35.664;139.738;2023-02-10T04:03:50;100985.97;;;6.86;55.94
9415;BME280;4746;35.664;139.738;2023-02-10T04:06:18;100991.19;;;6.89;56.08
9415;BME280;4746;35.664;139.738;2023-02-10T04:08:48;100989.63;;;6.94;55.64
9415;BME280;4746;35.664;139.738;2023-02-10T04:11:15;100992.19;;;6.94;55.99
9415;BME280;4746;35.664;139.738;2023-02-10T04:13:43;100996.56;;;6.98;56.38
9415;BME280;4746;35.664;139.738;2023-02-10T04:16:13;100982.25;;;7.01;56.07
9415;BME280;4746;35.664;139.738;2023-02-10T04:18:42;100989.84;;;7.00;55.97
9415;BME280;4746;35.664;139.738;2023-02-10T04:21:12;100981.47;;;7.04;56.32
9415;BME280;4746;35.664;139.738;2023-02-10T04:23:40;100974.66;;;7.03;56.00
9415;BME280;4746;35.664;139.738;2023-02-10T04:26:08;100955.00;;;6.99;56.28
9415;BME280;4746;35.664;139.738;2023-02-10T04:28:35;100937.91;;;6.95;55.90
9415;BME280;4746;35.664;139.738;2023-02-10T04:31:03;100935.22;;;6.92;56.38
9415;BME280;4746;35.664;139.738;2023-02-10T04:33:32;100918.31;;;6.94;56.28
9415;BME280;4746;35.664;139.738;2023-02-10T04:35:59;100910.69;;;6.94;56.32
9415;BME280;4746;35.664;139.738;2023-02-10T04:38:30;100923.41;;;6.94;56.20
9415;BME280;4746;35.664;139.738;2023-02-10T04:40:57;100888.66;;;6.96;56.87
9415;BME280;4746;35.664;139.738;2023-02-10T04:43:25;100890.50;;;7.00;56.60
9415;BME280;4746;35.664;139.738;2023-02-10T04:45:53;100903.31;;;7.03;56.71
9415;BME280;4746;35.664;139.738;2023-02-10T04:48:20;100894.06;;;7.05;56.50
9415;BME280;4746;35.664;139.738;2023-02-10T04:50:48;100890.81;;;7.10;56.87
9415;BME280;4746;35.664;139.738;2023-02-10T04:53:16;100881.72;;;7.17;57.01
9415;BME280;4746;35.664;139.738;2023-02-10T04:55:43;100861.50;;;7.23;57.04
9415;BME280;4746;35.664;139.738;2023-02-10T04:58:11;100846.28;;;7.26;56.58
9415;BME280;4746;35.664;139.738;2023-02-10T05:00:41;100828.34;;;7.21;56.26
9415;BME280;4746;35.664;139.738;2023-02-10T05:03:08;100815.53;;;7.20;56.60
9415;BME280;4746;35.664;139.738;2023-02-10T05:05:36;100789.22;;;7.19;56.51
9415;BME280;4746;35.664;139.738;2023-02-10T05:08:03;100793.53;;;7.22;56.74
9415;BME280;4746;35.664;139.738;2023-02-10T05:10:32;100804.88;;;7.33;56.58
9415;BME280;4746;35.664;139.738;2023-02-10T05:13:00;100813.50;;;7.36;56.91
9415;BME280;4746;35.664;139.738;2023-02-10T05:15:28;100810.91;;;7.35;56.37
9415;BME280;4746;35.664;139.738;2023-02-10T05:17:57;100814.41;;;7.38;57.09
9415;BME280;4746;35.664;139.738;2023-02-10T05:20:25;100822.09;;;7.40;56.97
9415;BME280;4746;35.664;139.738;2023-02-10T05:22:52;100816.97;;;7.38;56.81
9415;BME280;4746;35.664;139.738;2023-02-10T05:25:20;100821.06;;;7.33;56.62
9415;BME280;4746;35.664;139.738;2023-02-10T05:27:47;100817.56;;;7.30;56.75
9415;BME280;4746;35.664;139.738;2023-02-10T05:30:15;100808.19;;;7.29;56.92
9415;BME280;4746;35.664;139.738;2023-02-10T05:32:43;100792.72;;;7.23;57.11
9415;BME280;4746;35.664;139.738;2023-02-10T05:35:12;100778.88;;;7.15;56.89
9415;BME280;4746;35.664;139.738;2023-02-10T05:37:40;100774.53;;;7.11;57.11
9415;BME280;4746;35.664;139.738;2023-02-10T05:40:08;100773.53;;;7.06;56.57
9415;BME280;4746;35.664;139.738;2023-02-10T05:42:35;100761.50;;;7.02;57.02
9415;BME280;4746;35.664;139.738;2023-02-10T05:45:03;100762.34;;;7.01;56.95
9415;BME280;4746;35.664;139.738;2023-02-10T05:47:31;100775.06;;;7.01;57.33
9415;BME280;4746;35.664;139.738;2023-02-10T05:49:58;100776.75;;;7.00;57.18
9415;BME280;4746;35.664;139.738;2023-02-10T05:52:26;100780.97;;;7.00;57.57
9415;BME280;4746;35.664;139.738;2023-02-10T05:54:53;100774.13;;;6.97;57.81
9415;BME280;4746;35.664;139.738;2023-02-10T05:57:21;100786.88;;;6.99;57.35
9415;BME280;4746;35.664;139.738;2023-02-10T05:59:48;100765.69;;;7.00;57.89
9415;BME280;4746;35.664;139.738;2023-02-10T06:02:16;100759.59;;;6.95;57.85
9415;BME280;4746;35.664;139.738;2023-02-10T06:04:43;100749.41;;;6.95;57.64
9415;BME280;4746;35.664;139.738;2023-02-10T06:07:11;100753.59;;;6.93;57.75
9415;BME280;4746;35.664;139.738;2023-02-10T06:09:39;100765.19;;;6.84;57.79
9415;BME280;4746;35.664;139.738;2023-02-10T06:12:07;100758.22;;;6.78;57.68
9415;BME280;4746;35.664;139.738;2023-02-10T06:14:35;100771.59;;;6.71;57.93
9415;BME280;4746;35.664;139.738;2023-02-10T06:17:06;100758.59;;;6.64;57.63
9415;BME280;4746;35.664;139.738;2023-02-10T06:19:40;100757.56;;;6.57;58.15
9415;BME280;4746;35.664;139.738;2023-02-10T06:22:09;100737.88;;;6.52;58.07
9415;BME280;4746;35.664;139.738;2023-02-10T06:24:38;100731.13;;;6.52;58.35
9415;BME280;4746;35.664;139.738;2023-02-10T06:27:06;100726.84;;;6.51;58.30
9415;BME280;4746;35.664;139.738;2023-02-10T06:29:36;100722.59;;;6.52;58.66
9415;BME280;4746;35.664;139.738;2023-02-10T06:32:03;100726.09;;;6.55;58.41
9415;BME280;4746;35.664;139.738;2023-02-10T06:34:31;100708.41;;;6.58;58.70
9415;BME280;4746;35.664;139.738;2023-02-10T06:36:58;100715.16;;;6.58;59.10
9415;BME280;4746;35.664;139.738;2023-02-10T06:39:26;100728.59;;;6.54;58.38
9415;BME280;4746;35.664;139.738;2023-02-10T06:41:53;100734.50;;;6.53;58.98
9415;BME280;4746;35.664;139.738;2023-02-10T06:44:22;100714.25;;;6.56;59.17
9415;BME280;4746;35.664;139.738;2023-02-10T06:46:49;100691.31;;;6.54;58.90
9415;BME280;4746;35.664;139.738;2023-02-10T06:49:17;100670.06;;;6.54;59.34
9415;BME280;4746;35.664;139.738;2023-02-10T06:51:44;100658.22;;;6.54;59.47
9415;BME280;4746;35.664;139.738;2023-02-10T06:54:12;100666.84;;;6.59;59.58
9415;BME280;4746;35.664;139.738;2023-02-10T06:56:39;100686.47;;;6.63;59.56
9415;BME280;4746;35.664;139.738;2023-02-10T06:59:13;100668.66;;;6.63;59.74
9415;BME280;4746;35.664;139.738;2023-02-10T07:01:41;100657.84;;;6.70;59.68
9415;BME280;4746;35.664;139.738;2023-02-10T07:04:10;100666.38;;;6.72;59.64
9415;BME280;4746;35.664;139.738;2023-02-10T07:06:39;100669.84;;;6.74;59.96
9415;BME280;4746;35.664;139.738;2023-02-10T07:09:07;100656.25;;;6.74;59.42
9415;BME280;4746;35.664;139.738;2023-02-10T07:11:34;100657.09;;;6.74;59.75
9415;BME280;4746;35.664;139.738;2023-02-10T07:14:02;100650.28;;;6.73;59.66
9415;BME280;4746;35.664;139.738;2023-02-10T07:16:29;100639.28;;;6.74;59.66
9415;BME280;4746;35.664;139.738;2023-02-10T07:18:57;100623.94;;;6.71;59.68
9415;BME280;4746;35.664;139.738;2023-02-10T07:21:25;100616.25;;;6.70;59.79
9415;BME280;4746;35.664;139.738;2023-02-10T07:23:52;100612.88;;;6.71;60.16
9415;BME280;4746;35.664;139.738;2023-02-10T07:26:20;100616.25;;;6.70;60.04
9415;BME280;4746;35.664;139.738;2023-02-10T07:28:47;100612.88;;;6.71;60.13
9415;BME280;4746;35.664;139.738;2023-02-10T07:31:15;100604.44;;;6.72;60.13
9415;BME280;4746;35.664;139.738;2023-02-10T07:33:42;100608.69;;;6.73;60.47
9415;BME280;4746;35.664;139.738;2023-02-10T07:36:11;100597.69;;;6.74;60.21
9415;BME280;4746;35.664;139.738;2023-02-10T07:38:40;100605.38;;;6.75;60.04
9415;BME280;4746;35.664;139.738;2023-02-10T07:41:08;100590.09;;;6.75;60.20
9415;BME280;4746;35.664;139.738;2023-02-10T07:43:37;100588.47;;;6.77;60.27
9415;BME280;4746;35.664;139.738;2023-02-10T07:46:05;100594.38;;;6.76;60.13
9415;BME280;4746;35.664;139.738;2023-02-10T07:48:34;100581.50;;;6.72;60.31
9415;BME280;4746;35.664;139.738;2023-02-10T07:51:02;100569.56;;;6.69;60.61
9415;BME280;4746;35.664;139.738;2023-02-10T07:53:29;100556.81;;;6.68;60.69
9415;BME280;4746;35.664;139.738;2023-02-10T07:55:59;100567.94;;;6.71;60.85
9415;BME280;4746;35.664;139.738;2023-02-10T07:58:27;100569.63;;;6.72;60.91
9415;BME280;4746;35.664;139.738;2023-02-10T08:00:54;100585.78;;;6.73;60.98
9415;BME280;4746;35.664;139.738;2023-02-10T08:03:24;100570.56;;;6.74;60.51
9415;BME280;4746;35.664;139.738;2023-02-10T08:05:53;100563.72;;;6.73;60.80
9415;BME280;4746;35.664;139.738;2023-02-10T08:08:20;100553.59;;;6.75;61.04
9415;BME280;4746;35.664;139.738;2023-02-10T08:13:36;100514.56;;;6.76;61.18
9415;BME280;4746;35.664;139.738;2023-02-10T08:16:06;100507.97;;;6.82;61.27
9415;BME280;4746;35.664;139.738;2023-02-10T08:18:35;100497.03;;;6.86;61.36
9415;BME280;4746;35.664;139.738;2023-02-10T08:21:03;100510.75;;;6.91;61.00
9415;BME280;4746;35.664;139.738;2023-02-10T08:23:32;100502.22;;;6.89;60.97
9415;BME280;4746;35.664;139.738;2023-02-10T08:26:08;100481.06;;;6.91;61.20
9415;BME280;4746;35.664;139.738;2023-02-10T08:28:38;100476.81;;;6.92;61.46
9415;BME280;4746;35.664;139.738;2023-02-10T08:31:08;100471.75;;;6.93;61.61
9415;BME280;4746;35.664;139.738;2023-02-10T08:33:38;100453.25;;;6.99;61.39
9415;BME280;4746;35.664;139.738;2023-02-10T08:36:09;100468.59;;;7.02;61.61
9415;BME280;4746;35.664;139.738;2023-02-10T08:38:37;100455.06;;;7.04;61.17
9415;BME280;4746;35.664;139.738;2023-02-10T08:41:05;100446.66;;;7.07;61.37
9415;BME280;4746;35.664;139.738;2023-02-10T08:43:33;100461.94;;;7.07;61.73
9415;BME280;4746;35.664;139.738;2023-02-10T08:46:01;100438.25;;;7.11;61.66
9415;BME280;4746;35.664;139.738;2023-02-10T08:48:30;100434.91;;;7.12;61.39
9415;BME280;4746;35.664;139.738;2023-02-10T08:50:58;100434.81;;;7.09;61.67
9415;BME280;4746;35.664;139.738;2023-02-10T08:53:27;100433.97;;;7.10;61.43
9415;BME280;4746;35.664;139.738;2023-02-10T08:56:00;100438.38;;;7.15;61.64
9415;BME280;4746;35.664;139.738;2023-02-10T08:58:28;100437.44;;;7.12;62.04
9415;BME280;4746;35.664;139.738;2023-02-10T09:00:56;100426.41;;;7.13;62.09
9415;BME280;4746;35.664;139.738;2023-02-10T09:03:24;100431.44;;;7.10;61.84
9415;BME280;4746;35.664;139.738;2023-02-10T09:05:53;100435.75;;;7.12;61.68
9415;BME280;4746;35.664;139.738;2023-02-10T09:08:21;100427.25;;;7.12;61.79
9415;BME280;4746;35.664;139.738;2023-02-10T09:10:49;100382.13;;;7.08;61.87
9415;BME280;4746;35.664;139.738;2023-02-10T09:13:17;100352.44;;;7.08;61.74
9415;BME280;4746;35.664;139.738;2023-02-10T09:15:44;100352.47;;;7.10;62.03
9415;BME280;4746;35.664;139.738;2023-02-10T09:18:12;100346.63;;;7.14;62.15
9415;BME280;4746;35.664;139.738;2023-02-10T09:20:39;100370.31;;;7.11;61.74
9415;BME280;4746;35.664;139.738;2023-02-10T09:23:07;100361.84;;;7.11;62.52
9415;BME280;4746;35.664;139.738;2023-02-10T09:25:34;100366.94;;;7.11;62.12
9415;BME280;4746;35.664;139.738;2023-02-10T09:28:02;100344.81;;;7.10;62.34
9415;BME280;4746;35.664;139.738;2023-02-10T09:30:30;100333.00;;;7.12;62.30
9415;BME280;4746;35.664;139.738;2023-02-10T09:32:57;100303.09;;;7.03;62.82
9415;BME280;4746;35.664;139.738;2023-02-10T09:35:27;100298.72;;;6.98;63.37
9415;BME280;4746;35.664;139.738;2023-02-10T09:37:57;100297.06;;;7.00;63.42
9415;BME280;4746;35.664;139.738;2023-02-10T09:40:31;100289.56;;;7.06;63.32
9415;BME280;4746;35.664;139.738;2023-02-10T09:46:36;100285.44;;;7.11;63.21
9415;BME280;4746;35.664;139.738;2023-02-10T09:49:43;100282.06;;;7.13;63.11
9415;BME280;4746;35.664;139.738;2023-02-10T09:54:55;100289.63;;;7.10;63.52
9415;BME280;4746;35.664;139.738;2023-02-10T10:00:20;100273.38;;;7.04;63.47
9415;BME280;4746;35.664;139.738;2023-02-10T10:02:56;100290.97;;;6.93;63.44
9415;BME280;4746;35.664;139.738;2023-02-10T10:08:45;100255.97;;;6.85;63.40
9415;BME280;4746;35.664;139.738;2023-02-10T10:11:50;100271.19;;;6.82;63.31
9415;BME280;4746;35.664;139.738;2023-02-10T10:14:27;100275.25;;;6.74;63.44
9415;BME280;4746;35.664;139.738;2023-02-10T10:23:42;100271.78;;;6.72;63.82
9415;BME280;4746;35.664;139.738;2023-02-10T10:35:01;100268.34;;;6.69;64.30
9415;BME280;4746;35.664;139.738;2023-02-10T10:37:30;100263.25;;;6.69;64.48
9415;BME280;4746;35.664;139.738;2023-02-10T10:40:05;100237.75;;;6.67;64.27
9415;BME280;4746;35.664;139.738;2023-02-10T10:42:50;100196.28;;;6.71;64.27
9415;BME280;4746;35.664;139.738;2023-02-10T10:45:30;100231.16;;;6.75;64.15
9415;BME280;4746;35.664;139.738;2023-02-10T10:48:09;100237.06;;;6.74;63.99
9415;BME280;4746;35.664;139.738;2023-02-10T10:50:41;100245.38;;;6.67;64.15
9415;BME280;4746;35.664;139.738;2023-02-10T10:53:39;100226.75;;;6.68;64.38
9415;BME280;4746;35.664;139.738;2023-02-10T10:56:54;100215.66;;;6.66;64.06
9415;BME280;4746;35.664;139.738;2023-02-10T10:59:40;100200.44;;;6.68;64.49
9415;BME280;4746;35.664;139.738;2023-02-10T11:02:16;100191.09;;;6.68;64.80
9415;BME280;4746;35.664;139.738;2023-02-10T11:04:44;100195.28;;;6.66;64.74
9415;BME280;4746;35.664;139.738;2023-02-10T11:07:22;100199.63;;;6.70;64.79
9415;BME280;4746;35.664;139.738;2023-02-10T11:09:54;100182.69;;;6.72;65.07
9415;BME280;4746;35.664;139.738;2023-02-10T11:15:34;100201.66;;;6.85;64.77
9415;BME280;4746;35.664;139.738;2023-02-10T11:18:17;100181.25;;;6.83;64.70
9415;BME280;4746;35.664;139.738;2023-02-10T11:21:15;100190.56;;;6.83;64.79
9415;BME280;4746;35.664;139.738;2023-02-10T11:23:53;100178.63;;;6.79;65.02
9415;BME280;4746;35.664;139.738;2023-02-10T11:26:24;100142.09;;;6.78;65.26
9415;BME280;4746;35.664;139.738;2023-02-10T11:28:53;100119.25;;;6.80;65.57
9415;BME280;4746;35.664;139.738;2023-02-10T11:31:35;100118.56;;;6.88;65.58
9415;BME280;4746;35.664;139.738;2023-02-10T11:34:37;100083.88;;;6.94;65.36
9415;BME280;4746;35.664;139.738;2023-02-10T11:37:33;100111.97;;;6.99;65.61
9415;BME280;4746;35.664;139.738;2023-02-10T11:40:25;100106.91;;;7.00;65.47
9415;BME280;4746;35.664;139.738;2023-02-10T11:42:59;100116.25;;;7.00;65.77
9415;BME280;4746;35.664;139.738;2023-02-10T11:45:31;100110.25;;;6.98;65.31
9415;BME280;4746;35.664;139.738;2023-02-10T11:48:17;100105.25;;;7.01;65.49
9415;BME280;4746;35.664;139.738;2023-02-10T11:50:46;100101.72;;;6.96;65.89
9415;BME280;4746;35.664;139.738;2023-02-10T11:53:36;100104.38;;;7.00;65.20
9415;BME280;4746;35.664;139.738;2023-02-10T11:56:31;100110.28;;;6.99;65.66
9415;BME280;4746;35.664;139.738;2023-02-10T12:03:24;100079.66;;;6.95;65.50
9415;BME280;4746;35.664;139.738;2023-02-10T12:09:05;100054.25;;;6.98;65.79
9415;BME280;4746;35.664;139.738;2023-02-10T12:12:09;100023.75;;;7.01;65.81
9415;BME280;4746;35.664;139.738;2023-02-10T12:14:57;100009.34;;;7.03;65.63
9415;BME280;4746;35.664;139.738;2023-02-10T12:23:43;99978.00;;;7.07;66.24
9415;BME280;4746;35.664;139.738;2023-02-10T12:26:37;99972.06;;;7.08;65.69
9415;BME280;4746;35.664;139.738;2023-02-10T12:29:21;99959.31;;;7.08;66.25
9415;BME280;4746;35.664;139.738;2023-02-10T12:32:26;99952.63;;;7.13;65.96
9415;BME280;4746;35.664;139.738;2023-02-10T12:41:16;99926.47;;;7.21;65.95
9415;BME280;4746;35.664;139.738;2023-02-10T12:44:05;99917.13;;;7.22;66.26
9415;BME280;4746;35.664;139.738;2023-02-10T12:50:21;99920.56;;;7.24;66.22
9415;BME280;4746;35.664;139.738;2023-02-10T12:53:21;99913.75;;;7.23;65.90
9415;BME280;4746;35.664;139.738;2023-02-10T12:56:12;99899.22;;;7.19;65.87
9415;BME280;4746;35.664;139.738;2023-02-10T12:59:08;99885.63;;;7.18;66.21
9415;BME280;4746;35.664;139.738;2023-02-10T13:01:48;99877.09;;;7.16;66.57
9415;BME280;4746;35.664;139.738;2023-02-10T13:04:51;99867.00;;;7.21;66.51
9415;BME280;4746;35.664;139.738;2023-02-10T13:07:39;99854.25;;;7.21;66.21
9415;BME280;4746;35.664;139.738;2023-02-10T13:12:50;99820.34;;;7.25;66.52
9415;BME280;4746;35.664;139.738;2023-02-10T13:15:49;99811.09;;;7.30;66.33
9415;BME280;4746;35.664;139.738;2023-02-10T13:18:24;99817.03;;;7.30;66.57
9415;BME280;4746;35.664;139.738;2023-02-10T13:21:27;99801.81;;;7.36;66.26
9415;BME280;4746;35.664;139.738;2023-02-10T13:24:11;99801.91;;;7.41;66.03
9415;BME280;4746;35.664;139.738;2023-02-10T13:35:55;99784.22;;;7.53;66.19
9415;BME280;4746;35.664;139.738;2023-02-10T13:38:24;99790.19;;;7.56;66.28
9415;BME280;4746;35.664;139.738;2023-02-10T13:40:59;99793.63;;;7.59;66.93
9415;BME280;4746;35.664;139.738;2023-02-10T13:43:57;99785.19;;;7.63;65.98
9415;BME280;4746;35.664;139.738;2023-02-10T13:46:30;99779.25;;;7.64;66.11
9415;BME280;4746;35.664;139.738;2023-02-10T13:49:00;99786.91;;;7.64;65.87
9415;BME280;4746;35.664;139.738;2023-02-10T13:51:38;99789.47;;;7.66;65.78
9415;BME280;4746;35.664;139.738;2023-02-10T13:54:22;99776.72;;;7.67;65.66
9415;BME280;4746;35.664;139.738;2023-02-10T13:56:57;99787.81;;;7.69;65.62
9415;BME280;4746;35.664;139.738;2023-02-10T13:59:51;99783.59;;;7.74;65.82
9415;BME280;4746;35.664;139.738;2023-02-10T14:02:38;99764.09;;;7.76;65.43
9415;BME280;4746;35.664;139.738;2023-02-10T14:08:39;99751.34;;;7.79;65.35
9415;BME280;4746;35.664;139.738;2023-02-10T14:16:45;99732.75;;;7.89;65.05
9415;BME280;4746;35.664;139.738;2023-02-10T14:19:28;99711.56;;;7.95;64.88
9415;BME280;4746;35.664;139.738;2023-02-10T14:21:59;99726.03;;;7.96;65.04
9415;BME280;4746;35.664;139.738;2023-02-10T14:24:36;99726.09;;;8.00;64.81
9415;BME280;4746;35.664;139.738;2023-02-10T14:27:14;99703.97;;;8.02;64.93
9415;BME280;4746;35.664;139.738;2023-02-10T14:30:02;99683.66;;;8.11;64.26
9415;BME280;4746;35.664;139.738;2023-02-10T14:32:32;99692.16;;;8.13;64.94
9415;BME280;4746;35.664;139.738;2023-02-10T14:35:24;99704.16;;;8.20;64.27
9415;BME280;4746;35.664;139.738;2023-02-10T14:37:55;99676.06;;;8.16;64.52
9415;BME280;4746;35.664;139.738;2023-02-10T14:40:26;99693.91;;;8.14;64.01
9415;BME280;4746;35.664;139.738;2023-02-10T14:42:55;99678.56;;;8.11;64.03
9415;BME280;4746;35.664;139.738;2023-02-10T14:45:26;99650.47;;;8.10;63.86
9415;BME280;4746;35.664;139.738;2023-02-10T14:47:57;99649.63;;;8.08;63.53
9415;BME280;4746;35.664;139.738;2023-02-10T14:50:35;99652.16;;;8.06;63.56
9415;BME280;4746;35.664;139.738;2023-02-10T14:53:05;99676.75;;;8.01;63.38
9415;BME280;4746;35.664;139.738;2023-02-10T14:55:36;99680.19;;;8.03;63.12
9415;BME280;4746;35.664;139.738;2023-02-10T14:58:16;99673.38;;;8.02;63.10
9415;BME280;4746;35.664;139.738;2023-02-10T15:03:28;99672.44;;;7.93;63.28
9415;BME280;4746;35.664;139.738;2023-02-10T15:05:56;99666.50;;;7.92;62.89
9415;BME280;4746;35.664;139.738;2023-02-10T15:08:54;99683.50;;;7.93;62.81
9415;BME280;4746;35.664;139.738;2023-02-10T15:11:27;99669.88;;;7.88;63.33
9415;BME280;4746;35.664;139.738;2023-02-10T15:14:23;99665.59;;;7.87;62.95
9415;BME280;4746;35.664;139.738;2023-02-10T15:16:52;99665.56;;;7.84;63.03
9415;BME280;4746;35.664;139.738;2023-02-10T15:19:21;99660.44;;;7.83;62.70
9415;BME280;4746;35.664;139.738;2023-02-10T15:21:49;99664.72;;;7.82;62.87
9415;BME280;4746;35.664;139.738;2023-02-10T15:24:30;99648.53;;;7.82;62.33
9415;BME280;4746;35.664;139.738;2023-02-10T15:27:21;99638.34;;;7.82;62.74